Time;durP1;ratioP1;P1;durP2;ratioP2;P2;SDS_P1;SDS_P2;PMS_P1;PMS_P2;Temp;Humidity;BMP_temperature;BMP_pressure;BME280_temperature;BME280_humidity;BME280_pressure;Samples;Min_cycle;Max_cycle;Signal;HPM_P1;HPM_P2
2022/09/03 00:01:13;;;;;;;8.75;3.15;;;;;;;17.00;49.75;100975.63;5037608;28;20595;-86
2022/09/03 00:03:50;;;;;;;9.93;3.10;;;;;;;16.91;49.70;100974.72;5013134;28;20033;-86
2022/09/03 00:06:22;;;;;;;4.75;2.90;;;;;;;16.87;50.01;100981.34;5065254;28;20035;-86
2022/09/03 00:08:53;;;;;;;8.30;3.08;;;;;;;16.86;50.17;100978.84;5089108;28;20114;-85
2022/09/03 00:11:27;;;;;;;5.80;3.13;;;;;;;16.80;50.65;100977.59;5089623;28;20062;-87
2022/09/03 00:14:04;;;;;;;8.05;2.67;;;;;;;16.78;49.99;100974.25;5090409;28;20024;-85
2022/09/03 00:16:45;;;;;;;11.38;3.28;;;;;;;16.73;50.35;100968.56;5088935;28;20016;-85
2022/09/03 00:19:17;;;;;;;6.28;2.85;;;;;;;16.77;50.48;100971.75;5088857;28;20028;-85
2022/09/03 00:21:51;;;;;;;9.50;3.58;;;;;;;16.74;50.61;100975.53;5094336;28;20554;-84
2022/09/03 00:24:20;;;;;;;7.78;3.30;;;;;;;16.72;50.56;100968.69;5093504;28;20024;-84
2022/09/03 00:26:54;;;;;;;12.10;3.60;;;;;;;16.72;50.25;100979.34;5095165;28;20028;-86
2022/09/03 00:29:27;;;;;;;5.40;3.35;;;;;;;16.75;50.60;100974.56;5099808;27;20117;-85
2022/09/03 00:31:57;;;;;;;7.22;3.20;;;;;;;16.73;50.56;100973.88;5105443;28;20114;-85
2022/09/03 00:34:29;;;;;;;7.95;3.20;;;;;;;16.72;50.80;100974.03;5089341;28;20424;-85
2022/09/03 00:36:55;;;;;;;5.97;3.28;;;;;;;16.66;50.68;100972.78;5093932;28;20034;-85
2022/09/03 00:39:23;;;;;;;9.60;3.70;;;;;;;16.59;50.79;100969.88;5110343;28;20434;-85
2022/09/03 00:42:13;;;;;;;5.40;3.55;;;;;;;16.53;51.06;100967.81;5109328;28;20052;-85
2022/09/03 00:45:05;;;;;;;10.80;3.88;;;;;;;16.50;51.09;100967.28;5109140;28;20035;-86
2022/09/03 00:47:49;;;;;;;8.75;4.07;;;;;;;16.44;51.32;100962.56;5110316;28;20047;-86
2022/09/03 00:50:30;;;;;;;6.63;3.70;;;;;;;16.40;51.29;100969.97;5108948;28;20032;-86
2022/09/03 00:53:09;;;;;;;8.98;3.97;;;;;;;16.32;51.65;100971.69;5098070;28;20024;-86
2022/09/03 00:55:57;;;;;;;6.07;4.03;;;;;;;16.30;51.94;100967.38;5098075;28;20023;-86
2022/09/03 00:58:30;;;;;;;4.78;3.70;;;;;;;16.30;51.90;100970.03;5096682;28;20500;-86
2022/09/03 01:00:55;;;;;;;;;;;;;;;16.40;50.59;100963.81;5100968;28;20080;-86
2022/09/03 01:03:29;;;;;;;10.10;3.90;;;;;;;16.27;51.84;100970.31;5094846;28;19912;-86
2022/09/03 01:06:23;;;;;;;7.85;4.45;;;;;;;16.22;52.09;100959.31;5100213;28;20028;-85
2022/09/03 01:09:04;;;;;;;8.13;4.30;;;;;;;16.23;52.24;100962.81;5098721;28;20027;-86
2022/09/03 01:11:48;;;;;;;8.05;4.30;;;;;;;16.18;52.17;100960.59;5097602;28;20012;-85
2022/09/03 01:14:43;;;;;;;8.68;4.15;;;;;;;16.13;52.28;100956.72;5098621;28;20602;-86
2022/09/03 01:17:24;;;;;;;7.93;3.97;;;;;;;16.07;52.32;100960.78;5094983;28;20560;-85
2022/09/03 01:20:10;;;;;;;9.68;4.40;;;;;;;16.05;52.57;100953.97;5091416;28;20019;-86
2022/09/03 01:22:44;;;;;;;9.50;4.13;;;;;;;16.00;52.79;100957.03;5094611;28;20024;-86
2022/09/03 01:25:39;;;;;;;8.20;4.25;;;;;;;16.03;52.74;100956.75;5094856;28;20020;-86
2022/09/03 01:28:13;;;;;;;7.20;4.00;;;;;;;15.94;52.90;100974.38;5101441;28;20020;-86
2022/09/03 01:30:47;;;;;;;10.88;4.60;;;;;;;15.89;53.23;100959.88;5095841;28;20068;-86
2022/09/03 01:33:25;;;;;;;9.55;4.82;;;;;;;15.89;53.14;100965.16;5093994;28;20019;-86
2022/09/03 01:36:23;;;;;;;10.45;4.60;;;;;;;15.94;52.79;100970.88;5092836;28;20024;-86
2022/09/03 01:38:51;;;;;;;11.15;4.80;;;;;;;15.90;53.13;100967.69;5095197;28;20032;-86
2022/09/03 01:44:40;;;;;;;9.65;4.78;;;;;;;15.80;53.12;100963.38;5095653;28;20050;-86
2022/09/03 01:47:25;;;;;;;10.65;4.78;;;;;;;15.82;52.84;100958.78;5064172;28;20032;-86
2022/09/03 01:50:01;;;;;;;11.23;4.95;;;;;;;15.76;53.23;100967.31;5094565;28;20024;-86
2022/09/03 01:52:58;;;;;;;10.23;5.00;;;;;;;15.75;53.29;100963.00;5100217;28;20008;-86
2022/09/03 01:55:43;;;;;;;6.97;4.72;;;;;;;15.76;53.11;100960.19;5100515;28;20027;-85
2022/09/03 01:58:17;;;;;;;8.52;4.63;;;;;;;15.74;53.91;100971.94;5096677;28;20506;-86
2022/09/03 02:00:48;;;;;;;8.10;5.13;;;;;;;15.79;53.35;100975.00;5093244;28;20483;-85
2022/09/03 02:03:14;;;;;;;9.77;5.70;;;;;;;15.76;53.50;100977.94;5102774;28;20023;-85
2022/09/03 02:05:42;;;;;;;9.35;5.43;;;;;;;15.76;53.74;100975.28;5101550;28;20050;-86
2022/09/03 02:08:09;;;;;;;11.05;6.00;;;;;;;15.71;54.11;100962.44;5103988;28;20020;-85
2022/09/03 02:10:37;;;;;;;10.35;5.72;;;;;;;15.62;54.01;100964.16;5100639;28;20533;-85
2022/09/03 02:13:14;;;;;;;10.80;5.38;;;;;;;15.58;54.32;100962.72;5097553;28;20012;-85
2022/09/03 02:15:44;;;;;;;10.13;5.22;;;;;;;15.59;54.55;100964.41;5097191;28;20020;-85
2022/09/03 02:18:18;;;;;;;9.98;5.38;;;;;;;15.54;54.19;100955.19;5090502;28;20016;-85
2022/09/03 02:20:46;;;;;;;9.35;5.50;;;;;;;15.48;54.50;100959.25;5095471;28;20020;-85
2022/09/03 02:23:12;;;;;;;13.63;5.95;;;;;;;15.43;54.39;100958.84;5090718;28;20020;-85
2022/09/03 02:25:43;;;;;;;10.45;5.57;;;;;;;15.45;54.54;100961.34;5092232;28;20392;-85
2022/09/03 02:28:09;;;;;;;8.85;5.55;;;;;;;15.46;54.29;100957.72;5096058;28;20719;-85
2022/09/03 02:30:35;;;;;;;8.82;5.57;;;;;;;15.41;54.54;100971.41;5095322;28;20099;-86
2022/09/03 02:33:01;;;;;;;9.70;5.75;;;;;;;15.39;54.54;100961.91;5095282;28;20092;-85
2022/09/03 02:35:26;;;;;;;11.75;5.82;;;;;;;15.36;54.50;100968.34;5101492;28;20041;-85
2022/09/03 02:37:54;;;;;;;10.65;5.40;;;;;;;15.33;54.61;100964.16;5103326;28;20452;-85
2022/09/03 02:40:19;;;;;;;9.40;5.45;;;;;;;15.27;54.85;100963.88;5097271;28;20031;-85
2022/09/03 02:42:45;;;;;;;10.73;6.25;;;;;;;15.27;54.92;100961.22;5097820;28;20052;-85
2022/09/03 02:45:27;;;;;;;12.77;5.93;;;;;;;15.24;54.67;100958.88;5091552;28;20452;-75
2022/09/03 02:47:58;;;;;;;12.15;5.93;;;;;;;15.19;55.15;100955.78;5094646;28;20023;-76
2022/09/03 02:50:24;;;;;;;12.80;6.22;;;;;;;15.26;54.84;100954.25;5098741;28;20023;-75
2022/09/03 02:52:50;;;;;;;11.27;6.35;;;;;;;15.24;55.01;100958.88;5097401;28;21277;-75
2022/09/03 02:55:16;;;;;;;14.93;6.78;;;;;;;15.23;54.91;100962.50;5098427;27;20032;-75
2022/09/03 02:57:41;;;;;;;12.90;7.07;;;;;;;15.25;54.99;100957.88;5098556;28;20039;-75
2022/09/03 03:00:07;;;;;;;13.60;7.05;;;;;;;15.22;55.08;100953.72;5097912;28;20023;-76
2022/09/03 03:02:33;;;;;;;18.08;7.35;;;;;;;15.20;55.17;100952.97;5097131;27;20020;-75
2022/09/03 03:04:59;;;;;;;15.07;6.45;;;;;;;15.23;55.05;100959.84;5098438;28;20035;-77
2022/09/03 03:07:25;;;;;;;11.52;6.60;;;;;;;15.26;55.26;100967.50;5094871;28;20472;-75
2022/09/03 03:09:50;;;;;;;11.57;6.10;;;;;;;15.34;55.99;100965.00;5103794;28;20031;-75
2022/09/03 03:12:16;;;;;;;13.05;6.65;;;;;;;15.28;55.17;100962.91;5099992;28;20016;-75
2022/09/03 03:14:42;;;;;;;13.25;6.63;;;;;;;15.23;55.04;100959.84;5102479;28;20016;-76
2022/09/03 03:17:07;;;;;;;11.07;6.97;;;;;;;15.20;55.35;100957.44;5094798;28;20020;-85
2022/09/03 03:19:33;;;;;;;11.68;6.32;;;;;;;15.13;55.62;100953.69;5100811;28;20080;-85
2022/09/03 03:21:58;;;;;;;10.75;6.80;;;;;;;15.10;55.86;100953.97;5099169;28;20032;-84
2022/09/03 03:24:23;;;;;;;14.98;6.60;;;;;;;15.05;55.90;100955.22;5100464;28;20151;-85
2022/09/03 03:26:49;;;;;;;13.27;6.20;;;;;;;15.04;55.86;100958.03;5097792;28;20034;-84
2022/09/03 03:29:16;;;;;;;13.23;6.80;;;;;;;14.99;55.89;100958.44;5096046;28;20016;-85
2022/09/03 03:31:42;;;;;;;11.65;6.88;;;;;;;14.98;55.70;100954.13;5098413;28;20077;-86
2022/09/03 03:34:07;;;;;;;13.27;6.18;;;;;;;14.97;56.13;100955.09;5097253;28;21869;-84
2022/09/03 03:36:33;;;;;;;10.65;6.68;;;;;;;14.94;56.09;100957.19;5103683;28;20023;-85
2022/09/03 03:39:00;;;;;;;11.35;6.10;;;;;;;14.92;56.13;100965.28;5100262;28;20035;-85
2022/09/03 03:41:33;;;;;;;12.30;6.43;;;;;;;14.89;56.07;100965.56;5099908;28;20091;-86
2022/09/03 03:44:01;;;;;;;12.95;6.82;;;;;;;14.90;55.83;100961.09;5097793;28;20030;-85
2022/09/03 03:46:33;;;;;;;13.35;6.22;;;;;;;14.95;55.61;100953.56;5097940;28;20012;-85
2022/09/03 03:48:58;;;;;;;13.13;6.53;;;;;;;14.93;55.75;100951.06;5099459;28;20272;-86
2022/09/03 03:51:24;;;;;;;11.70;6.03;;;;;;;14.95;56.13;100961.50;5096326;28;20024;-85
2022/09/03 03:53:54;;;;;;;13.27;6.55;;;;;;;14.97;56.12;100963.03;5100176;28;20591;-85
2022/09/03 03:56:20;;;;;;;9.73;6.25;;;;;;;14.94;56.08;100968.63;5096607;28;20068;-84
2022/09/03 03:58:47;;;;;;;10.65;6.25;;;;;;;14.97;55.68;100960.41;5098028;28;20031;-85
2022/09/03 04:01:17;;;;;;;14.10;6.00;;;;;;;14.95;55.97;100964.16;5095512;28;20016;-84
2022/09/03 04:03:43;;;;;;;13.15;5.82;;;;;;;14.95;55.78;100958.88;5096873;28;20088;-77
2022/09/03 04:06:11;;;;;;;11.88;5.65;;;;;;;14.96;55.82;100961.38;5095917;28;20028;-75
2022/09/03 04:08:41;;;;;;;11.57;5.65;;;;;;;14.93;56.28;100961.66;5095670;28;20073;-85
2022/09/03 04:11:10;;;;;;;9.98;5.45;;;;;;;14.92;55.84;100954.69;5100333;28;20027;-85
2022/09/03 04:13:38;;;;;;;11.55;6.10;;;;;;;14.90;55.89;100961.09;5097597;28;20015;-85
2022/09/03 04:16:17;;;;;;;11.55;5.80;;;;;;;14.87;56.15;100956.91;5097038;28;20072;-85
2022/09/03 04:18:43;;;;;;;12.52;6.10;;;;;;;14.87;56.15;100954.25;5097931;28;20023;-84
2022/09/03 04:21:09;;;;;;;9.20;6.55;;;;;;;14.82;56.17;100953.84;5097507;28;20023;-85
2022/09/03 04:23:40;;;;;;;8.82;5.85;;;;;;;14.84;56.28;100957.19;5097550;28;20051;-85
2022/09/03 04:26:07;;;;;;;10.07;6.47;;;;;;;14.80;56.25;100944.34;5094769;28;20024;-85
2022/09/03 04:28:33;;;;;;;13.27;6.15;;;;;;;14.85;56.14;100947.44;5098292;28;20016;-86
2022/09/03 04:31:03;;;;;;;12.30;5.70;;;;;;;14.83;56.35;100955.53;5096167;28;20148;-85
2022/09/03 04:33:29;;;;;;;9.02;5.60;;;;;;;14.85;56.33;100952.72;5095181;28;20297;-85
2022/09/03 04:36:16;;;;;;;11.35;5.60;;;;;;;14.90;55.92;100951.34;5094146;28;20442;-85
2022/09/03 04:38:44;;;;;;;9.98;5.53;;;;;;;14.85;56.50;100950.06;5097821;28;20035;-84
2022/09/03 04:41:12;;;;;;;11.48;6.35;;;;;;;14.83;56.50;100959.97;5097186;28;20028;-85
2022/09/03 04:43:38;;;;;;;9.68;6.00;;;;;;;14.88;56.16;100952.44;5096433;28;20020;-85
2022/09/03 04:46:06;;;;;;;13.52;5.88;;;;;;;14.82;56.40;100948.53;5097254;28;20019;-85
2022/09/03 04:48:33;;;;;;;12.27;5.97;;;;;;;14.83;56.56;100955.53;5094022;28;20189;-85
2022/09/03 04:51:06;;;;;;;10.43;5.60;;;;;;;14.84;56.53;100951.06;5096879;28;20020;-85
2022/09/03 04:53:33;;;;;;;9.70;5.50;;;;;;;14.76;56.79;100954.38;5093814;28;20069;-86
2022/09/03 04:55:59;;;;;;;11.95;5.65;;;;;;;14.79;56.76;100954.09;5094038;28;20053;-87
2022/09/03 04:58:25;;;;;;;10.18;5.70;;;;;;;14.76;57.13;100958.81;5096577;28;20100;-87
2022/09/03 05:00:50;;;;;;;10.80;5.65;;;;;;;14.75;57.02;100952.69;5096332;28;20441;-87
2022/09/03 05:03:16;;;;;;;12.48;5.65;;;;;;;14.74;57.13;100956.31;5099058;28;20560;-86
2022/09/03 05:05:42;;;;;;;9.02;5.72;;;;;;;14.76;57.36;100961.47;5098792;28;20031;-86
2022/09/03 05:08:07;;;;;;;10.75;6.22;;;;;;;14.80;56.95;100961.06;5095872;28;20387;-86
2022/09/03 05:10:33;;;;;;;14.85;6.32;;;;;;;14.82;56.94;100959.16;5095514;28;20023;-86
2022/09/03 05:13:04;;;;;;;12.07;6.43;;;;;;;14.84;57.13;100956.34;5096166;28;20028;-86
2022/09/03 05:15:30;;;;;;;14.18;6.25;;;;;;;14.82;56.93;100955.66;5099620;28;20540;-87
2022/09/03 05:17:58;;;;;;;16.58;6.40;;;;;;;14.88;56.92;100958.59;5096785;28;20016;-86
2022/09/03 05:20:24;;;;;;;13.75;7.20;;;;;;;14.93;57.09;100950.22;5098337;28;20027;-87
2022/09/03 05:22:49;;;;;;;14.15;7.28;;;;;;;14.93;56.91;100950.22;5097472;28;20015;-77
2022/09/03 05:25:15;;;;;;;12.82;7.18;;;;;;;14.89;56.91;100949.66;5094942;28;20020;-87
2022/09/03 05:27:41;;;;;;;14.88;6.65;;;;;;;14.98;56.63;100959.41;5099175;28;20030;-87
2022/09/03 05:30:06;;;;;;;10.98;6.50;;;;;;;14.96;56.63;100950.78;5091691;28;20028;-86
2022/09/03 05:32:33;;;;;;;14.32;7.15;;;;;;;15.01;56.48;100955.66;5095758;28;20012;-87
2022/09/03 05:34:58;;;;;;;13.02;6.60;;;;;;;15.03;56.75;100949.22;5098268;28;20024;-87
2022/09/03 05:37:23;;;;;;;10.88;6.35;;;;;;;15.09;56.86;100952.28;5094653;28;20394;-87
2022/09/03 05:39:49;;;;;;;15.93;6.82;;;;;;;15.11;56.54;100947.69;5095268;28;20012;-87
2022/09/03 05:42:14;;;;;;;14.73;6.63;;;;;;;15.20;56.75;100950.31;5094059;28;20051;-87
2022/09/03 05:44:40;;;;;;;10.93;6.03;;;;;;;15.26;56.84;100956.91;5096175;28;20077;-87
2022/09/03 05:47:05;;;;;;;12.20;7.07;;;;;;;15.29;56.57;100959.28;5095394;28;20018;-87
2022/09/03 05:49:31;;;;;;;15.35;6.38;;;;;;;15.30;56.58;100963.59;5095205;28;20015;-87
2022/09/03 05:51:59;;;;;;;9.25;6.63;;;;;;;15.40;57.79;100963.59;5095954;28;20016;-87
2022/09/03 05:54:25;;;;;;;13.93;6.15;;;;;;;15.47;55.78;100957.56;5100068;28;20459;-87
2022/09/03 05:56:50;;;;;;;13.07;6.13;;;;;;;15.56;55.04;100967.31;5097171;28;20464;-87
2022/09/03 05:59:16;;;;;;;12.55;6.60;;;;;;;15.61;55.10;100957.16;5098908;28;20019;-87
2022/09/03 06:01:44;;;;;;;11.80;6.40;;;;;;;15.65;55.13;100958.56;5077146;28;20024;-86
2022/09/03 06:04:12;;;;;;;11.48;6.20;;;;;;;15.76;54.41;100954.06;5092863;28;20446;-87
2022/09/03 06:06:40;;;;;;;12.75;6.72;;;;;;;15.79;55.02;100954.59;5095022;28;20032;-87
2022/09/03 06:09:12;;;;;;;16.27;6.70;;;;;;;15.85;54.47;100955.84;5096913;28;20479;-87
2022/09/03 06:11:39;;;;;;;13.23;6.37;;;;;;;15.89;54.58;100951.91;5093059;28;20023;-87
2022/09/03 06:14:06;;;;;;;11.40;5.82;;;;;;;15.95;54.88;100953.97;5097038;28;20524;-87
2022/09/03 06:16:33;;;;;;;13.75;6.32;;;;;;;16.01;54.42;100952.53;5108092;28;20065;-87
2022/09/03 06:18:59;;;;;;;11.77;6.32;;;;;;;16.07;54.49;100955.47;5093936;28;20024;-87
2022/09/03 06:21:25;;;;;;;10.77;5.50;;;;;;;16.11;54.44;100954.19;5100879;28;20037;-87
2022/09/03 06:23:55;;;;;;;12.65;5.90;;;;;;;16.18;53.77;100959.75;5097474;28;20022;-87
2022/09/03 06:26:22;;;;;;;12.73;6.65;;;;;;;16.25;54.23;100951.06;5100002;28;20020;-87
2022/09/03 06:28:48;;;;;;;11.52;6.32;;;;;;;16.32;53.96;100958.41;5100667;28;20042;-85
2022/09/03 06:31:16;;;;;;;13.80;6.68;;;;;;;16.39;53.48;100954.19;5106130;28;20011;-87
2022/09/03 06:33:42;;;;;;;17.23;6.32;;;;;;;16.44;53.25;100958.09;5102263;28;20124;-87
2022/09/03 06:36:12;;;;;;;12.93;6.70;;;;;;;16.52;53.45;100960.84;5103632;28;20380;-88
2022/09/03 06:38:38;;;;;;;13.05;6.38;;;;;;;16.57;53.33;100960.38;5099002;28;20038;-87
2022/09/03 06:41:06;;;;;;;10.32;6.30;;;;;;;16.68;53.05;100962.03;5099489;28;20032;-87
2022/09/03 06:43:37;;;;;;;17.52;6.72;;;;;;;16.74;52.69;100962.25;5101402;28;20502;-87
2022/09/03 06:46:10;;;;;;;17.38;6.90;;;;;;;16.82;52.50;100965.00;5101157;28;20023;-87
2022/09/03 06:48:37;;;;;;;13.73;6.40;;;;;;;16.91;52.49;100957.94;5096930;28;20019;-87
2022/09/03 06:51:02;;;;;;;15.98;6.40;;;;;;;17.01;52.28;100956.03;5101206;28;20028;-87
2022/09/03 06:53:30;;;;;;;12.75;6.05;;;;;;;17.08;52.17;100965.06;5098260;28;20031;-87
2022/09/03 06:56:25;;;;;;;10.90;5.88;;;;;;;17.18;52.26;100971.13;5100051;28;20023;-86
2022/09/03 06:58:51;;;;;;;17.77;6.88;;;;;;;17.27;52.06;100958.78;5100766;28;20467;-86
2022/09/03 07:01:30;;;;;;;11.20;5.97;;;;;;;17.40;50.91;100964.50;5098614;28;20079;-86
2022/09/03 07:03:59;;;;;;;13.30;6.05;;;;;;;17.49;51.03;100962.75;5102020;28;20041;-87
2022/09/03 07:06:29;;;;;;;11.35;5.95;;;;;;;17.57;50.72;100967.28;5098800;28;20081;-86
2022/09/03 07:08:56;;;;;;;13.18;6.28;;;;;;;17.68;50.74;100967.09;5093883;28;20038;-84
2022/09/03 07:11:25;;;;;;;15.95;6.30;;;;;;;17.86;50.84;100965.19;5098565;28;20062;-85
2022/09/03 07:13:54;;;;;;;12.02;6.05;;;;;;;17.94;50.06;100967.88;5103288;28;20619;-85
2022/09/03 07:16:43;;;;;;;12.48;5.85;;;;;;;18.02;50.26;100969.78;5098830;28;20065;-87
2022/09/03 07:19:09;;;;;;;10.05;5.57;;;;;;;18.15;49.99;100964.84;5097898;28;20124;-88
2022/09/03 07:21:35;;;;;;;10.73;4.97;;;;;;;18.30;49.18;100959.72;5099295;28;20031;-85
2022/09/03 07:24:03;;;;;;;13.15;5.43;;;;;;;18.46;49.55;100970.47;5097947;28;20031;-85
2022/09/03 07:26:31;;;;;;;8.77;4.47;;;;;;;18.59;49.28;100957.50;5101385;28;20043;-86
2022/09/03 07:28:59;;;;;;;8.60;3.92;;;;;;;18.68;48.96;100964.56;5100761;28;20019;-86
2022/09/03 07:31:30;;;;;;;8.75;3.40;;;;;;;18.84;48.10;100961.09;5098739;28;20012;-86
2022/09/03 07:33:57;;;;;;;8.00;3.17;;;;;;;19.14;47.71;100966.78;5100770;28;20027;-87
2022/09/03 07:36:25;;;;;;;6.63;2.72;;;;;;;19.24;47.22;100968.31;5098442;28;20054;-87
2022/09/03 07:38:54;;;;;;;5.80;2.20;;;;;;;19.12;47.09;100971.44;5104380;28;20375;-86
2022/09/03 07:41:20;;;;;;;4.70;1.88;;;;;;;19.00;47.28;100970.94;5097896;28;20040;-86
2022/09/03 07:43:46;;;;;;;4.63;1.80;;;;;;;18.95;48.51;100966.09;5098763;28;20031;-86
2022/09/03 07:46:21;;;;;;;4.15;1.90;;;;;;;19.20;48.19;100972.28;5105970;28;20543;-86
2022/09/03 07:48:57;;;;;;;9.10;2.30;;;;;;;19.56;47.21;100977.31;5099991;28;20495;-85
2022/09/03 07:51:25;;;;;;;5.20;1.88;;;;;;;19.94;46.56;100973.91;5102915;28;20051;-86
2022/09/03 07:53:55;;;;;;;3.72;1.70;;;;;;;20.17;46.06;100967.81;5105491;28;20015;-85
2022/09/03 07:56:21;;;;;;;5.68;1.77;;;;;;;20.41;45.36;100965.06;5095289;28;20028;-85
2022/09/03 07:58:46;;;;;;;5.05;1.90;;;;;;;20.72;45.47;100966.91;5100489;28;20018;-86
2022/09/03 08:01:16;;;;;;;5.93;1.65;;;;;;;20.99;45.10;100965.56;5100820;28;20028;-85
2022/09/03 08:03:46;;;;;;;3.72;1.70;;;;;;;21.24;43.34;100969.78;5102763;28;20011;-86
2022/09/03 08:06:13;;;;;;;11.05;1.70;;;;;;;21.36;43.03;100962.13;5097685;28;20874;-86
2022/09/03 08:08:39;;;;;;;5.22;1.75;;;;;;;21.63;43.15;100964.22;5098104;28;20023;-86
2022/09/03 08:11:10;;;;;;;3.38;1.40;;;;;;;21.86;42.57;100967.66;5098140;28;20144;-85
2022/09/03 08:13:45;;;;;;;3.00;1.53;;;;;;;22.04;42.92;100961.16;5099154;28;20065;-86
2022/09/03 08:16:12;;;;;;;5.47;1.40;;;;;;;22.24;43.23;100962.22;5101145;28;20043;-87
2022/09/03 08:18:38;;;;;;;3.33;1.50;;;;;;;22.47;41.17;100959.44;5100523;28;20686;-86
2022/09/03 08:21:08;;;;;;;3.00;1.40;;;;;;;22.67;41.25;100956.97;5093901;28;20020;-87
2022/09/03 08:23:37;;;;;;;4.82;1.30;;;;;;;22.75;40.90;100964.88;5095440;28;20039;-87
2022/09/03 08:26:03;;;;;;;10.63;1.52;;;;;;;22.88;40.25;100959.72;5105897;28;20035;-86
2022/09/03 08:28:29;;;;;;;6.03;1.75;;;;;;;23.12;39.42;100978.09;5116964;28;20054;-86
2022/09/03 08:30:54;;;;;;;5.70;1.42;;;;;;;23.20;38.92;100973.63;5113812;28;20055;-85
2022/09/03 08:33:35;;;;;;;5.35;1.55;;;;;;;23.31;38.91;100978.47;5118320;28;20016;-86
2022/09/03 08:36:04;;;;;;;2.78;1.35;;;;;;;23.54;39.29;100971.00;5118296;28;20124;-86
2022/09/03 08:38:32;;;;;;;7.65;1.42;;;;;;;23.57;39.08;100976.03;5121581;28;20077;-87
2022/09/03 08:41:15;;;;;;;5.85;1.40;;;;;;;23.79;39.29;100973.31;5121639;28;20012;-83
2022/09/03 08:44:05;;;;;;;6.22;1.52;;;;;;;23.93;38.53;100978.56;5117968;28;20024;-86
2022/09/03 08:46:50;;;;;;;4.55;1.50;;;;;;;24.01;38.15;100978.38;5120702;28;20012;-86
2022/09/03 08:49:21;;;;;;;3.72;1.40;;;;;;;23.92;37.30;100976.06;5114417;28;20020;-86
2022/09/03 08:51:49;;;;;;;3.83;1.27;;;;;;;23.95;38.46;100976.50;5116134;28;20019;-86
2022/09/03 08:54:16;;;;;;;5.85;1.50;;;;;;;24.14;38.08;100972.28;5119151;28;20023;-86
2022/09/03 08:56:43;;;;;;;6.63;1.50;;;;;;;24.27;37.49;100966.97;5119659;28;20012;-87
2022/09/03 08:59:08;;;;;;;5.30;1.48;;;;;;;24.33;37.66;100974.25;5121164;28;20265;-86
2022/09/03 09:01:55;;;;;;;4.03;1.50;;;;;;;24.33;38.49;100971.56;5112538;28;20020;-87
2022/09/03 09:04:30;;;;;;;5.85;1.73;;;;;;;24.46;36.53;100968.09;5100922;28;20104;-87
2022/09/03 09:07:20;;;;;;;6.07;1.50;;;;;;;24.73;37.28;100974.38;5095621;28;20074;-86
2022/09/03 09:10:12;;;;;;;4.32;1.45;;;;;;;24.91;37.72;100963.88;5104601;28;20020;-86
2022/09/03 09:13:08;;;;;;;7.93;1.58;;;;;;;25.07;36.89;100969.94;5097333;28;20440;-86
2022/09/03 09:16:05;;;;;;;5.32;1.58;;;;;;;25.16;37.58;100966.00;5100584;28;20077;-75
2022/09/03 09:18:45;;;;;;;7.40;1.67;;;;;;;25.14;36.58;100974.28;5090296;28;20036;-86
2022/09/03 09:21:27;;;;;;;5.75;1.30;;;;;;;25.43;35.44;100978.44;5091282;28;20032;-86
2022/09/03 09:23:59;;;;;;;6.25;1.40;;;;;;;25.50;35.48;100973.88;5107529;28;20030;-86
2022/09/03 09:26:24;;;;;;;;;;;;;;;25.77;37.13;100968.50;5099523;28;20039;-86
2022/09/03 09:28:59;;;;;;;4.40;1.27;;;;;;;25.57;35.98;100966.63;5095272;28;19915;-87
2022/09/03 09:31:27;;;;;;;9.70;1.52;;;;;;;25.56;35.06;100962.25;5101587;28;20023;-86
2022/09/03 09:33:52;;;;;;;3.60;1.17;;;;;;;25.82;35.02;100966.84;5096020;28;20020;-86
2022/09/03 09:36:20;;;;;;;5.07;1.45;;;;;;;25.74;34.82;100958.16;5103480;28;20019;-86
2022/09/03 09:38:47;;;;;;;4.97;1.50;;;;;;;25.77;35.05;100965.81;5101624;28;20016;-87
2022/09/03 09:41:15;;;;;;;6.93;1.50;;;;;;;25.89;34.54;100958.72;5098748;28;20039;-86
2022/09/03 09:43:42;;;;;;;3.45;1.50;;;;;;;25.79;35.63;100966.41;5100480;28;20029;-86
2022/09/03 09:46:12;;;;;;;4.95;1.50;;;;;;;25.71;35.05;100969.34;5096940;28;20027;-85
2022/09/03 09:48:49;;;;;;;6.07;1.40;;;;;;;25.84;35.08;100974.72;5099201;28;20016;-86
2022/09/03 09:51:23;;;;;;;2.60;1.45;;;;;;;25.87;35.07;100972.41;5100785;28;20015;-86
2022/09/03 09:54:03;;;;;;;6.15;1.42;;;;;;;26.04;35.33;100975.50;5102570;28;20035;-87
2022/09/03 09:56:29;;;;;;;3.78;1.60;;;;;;;25.96;33.82;100972.19;5101136;28;20060;-86
2022/09/03 09:59:09;;;;;;;4.53;1.52;;;;;;;25.99;34.75;100967.19;5100287;28;20053;-86
2022/09/03 10:01:43;;;;;;;4.95;1.50;;;;;;;26.01;34.17;100965.09;5113661;28;20387;-86
2022/09/03 10:04:30;;;;;;;3.03;1.38;;;;;;;26.12;34.56;100964.47;5103731;28;20020;-85
2022/09/03 10:07:03;;;;;;;5.47;1.40;;;;;;;26.20;34.11;100966.94;5099805;28;20016;-86
2022/09/03 10:09:30;;;;;;;5.45;1.88;;;;;;;26.20;33.99;100968.81;5103602;28;20038;-86
2022/09/03 10:12:04;;;;;;;8.05;1.70;;;;;;;26.28;33.57;100965.03;5102498;28;20023;-86
2022/09/03 10:14:35;;;;;;;7.57;1.77;;;;;;;26.40;33.38;100964.16;5104862;27;20020;-86
2022/09/03 10:17:12;;;;;;;4.80;2.00;;;;;;;26.54;33.85;100959.56;5099716;28;20024;-85
2022/09/03 10:22:53;;;;;;;5.05;2.05;;;;;;;26.62;32.62;100948.50;5103483;28;20570;-85
2022/09/03 10:25:21;;;;;;;4.93;1.42;;;;;;;26.77;32.96;100943.63;5099679;28;20072;-86
2022/09/03 10:27:46;;;;;;;5.03;1.45;;;;;;;26.68;33.13;100955.72;5104226;28;20020;-86
2022/09/03 10:30:16;;;;;;;4.03;1.38;;;;;;;26.68;33.46;100950.34;5101857;28;20030;-86
2022/09/03 10:33:04;;;;;;;3.58;1.50;;;;;;;26.61;33.99;100951.41;5106830;28;20019;-86
2022/09/03 10:35:33;;;;;;;7.45;1.52;;;;;;;26.77;33.01;100954.44;5103153;28;20020;-86
2022/09/03 10:38:08;;;;;;;4.72;1.55;;;;;;;26.79;32.36;100955.03;5097936;28;20024;-87
2022/09/03 10:40:39;;;;;;;4.30;1.40;;;;;;;26.96;32.86;100951.84;5102325;28;20031;-86
2022/09/03 10:43:20;;;;;;;4.45;1.38;;;;;;;26.96;33.18;100957.22;5104082;28;20055;-87
2022/09/03 10:46:05;;;;;;;5.47;1.63;;;;;;;27.11;32.95;100949.66;5100463;28;20039;-86
2022/09/03 10:48:55;;;;;;;5.57;1.40;;;;;;;27.30;31.97;100953.28;5100799;28;20024;-86
2022/09/03 10:51:41;;;;;;;6.25;1.67;;;;;;;27.21;32.43;100947.28;5101441;28;20016;-85
2022/09/03 10:54:25;;;;;;;2.92;1.52;;;;;;;27.02;32.99;100945.59;5101940;28;20028;-86
2022/09/03 10:57:03;;;;;;;6.45;1.48;;;;;;;27.23;33.21;100947.94;5103060;28;20027;-86
2022/09/03 10:59:54;;;;;;;9.82;1.60;;;;;;;27.39;31.84;100941.94;5105542;28;20411;-86
2022/09/03 11:02:52;;;;;;;5.22;1.70;;;;;;;27.26;32.74;100952.88;5098181;28;20048;-86
2022/09/03 11:05:28;;;;;;;3.50;1.52;;;;;;;27.36;32.43;100953.22;5103398;28;20474;-86
2022/09/03 11:08:06;;;;;;;8.60;1.60;;;;;;;27.35;32.38;100951.56;5102306;28;20028;-85
2022/09/03 11:10:41;;;;;;;5.00;1.60;;;;;;;27.28;31.77;100956.19;5104189;28;20067;-86
2022/09/03 11:13:32;;;;;;;4.75;1.77;;;;;;;27.48;32.78;100948.72;5100967;28;20023;-86
2022/09/03 11:16:11;;;;;;;3.28;1.52;;;;;;;27.63;31.45;100947.59;5091134;28;20097;-77
2022/09/03 11:18:48;;;;;;;4.45;1.50;;;;;;;27.66;32.03;100949.84;5102750;28;20020;-78
2022/09/03 11:21:17;;;;;;;8.57;1.75;;;;;;;27.57;31.45;100943.03;5098111;28;20016;-78
2022/09/03 11:23:49;;;;;;;3.90;1.55;;;;;;;27.54;31.26;100938.88;5103416;28;20482;-78
2022/09/03 11:26:18;;;;;;;5.40;1.43;;;;;;;27.71;31.41;100947.31;5100019;28;20027;-77
2022/09/03 11:28:54;;;;;;;3.10;1.52;;;;;;;27.37;31.81;100941.34;5101222;28;20470;-77
2022/09/03 11:31:56;;;;;;;7.35;1.70;;;;;;;27.37;32.46;100943.22;5098433;28;20031;-77
2022/09/03 11:34:32;;;;;;;5.32;1.48;;;;;;;27.28;32.09;100934.56;5098836;28;20024;-77
2022/09/03 11:37:25;;;;;;;4.68;1.45;;;;;;;27.41;33.20;100937.16;5100562;28;20368;-78
2022/09/03 11:40:06;;;;;;;5.97;1.63;;;;;;;27.62;31.78;100932.41;5097962;27;20039;-77
2022/09/03 11:42:41;;;;;;;3.92;1.50;;;;;;;27.76;31.83;100929.34;5095278;28;20182;-77
2022/09/03 11:45:21;;;;;;;6.40;1.70;;;;;;;27.90;31.23;100930.03;5098859;28;20015;-78
2022/09/03 11:47:48;;;;;;;7.32;1.80;;;;;;;27.74;31.60;100927.91;5100207;28;21048;-77
2022/09/03 11:50:23;;;;;;;4.63;1.67;;;;;;;27.87;31.67;100927.78;5096004;28;20457;-77